Mason Dixon, Pennsylvania
Current Conditions -  °F | °C
As of 1:53 AM on Sunday 21 Dec 2014 (Local Time) from KHGR Reporting Station
Overcast Overcast  
Wind Chill: 29°   Ceiling: 7000
Heat Index: 29°   Visibility: 7mi
Dew Point: 22°   Wind: 3mph
Humidity: 75%   Direction: 310°NW
Pressure: 30.28"   Gusts: NA
Location:  39.7874°N, 77.754°W
Report Text: KHGR 210653Z AUTO 31003KT 7SM OVC070 M02/M06 A3028 RMK AO2 SLP270 T10171056
Loading
Personal Weather Stations






























Interactive Weather Map New forecast layout! Learn more

10-Day Weather Forecast

Advertisements
Track Severe Weather on mobile